sensor_id;sensor_type;location;lat;lon;timestamp;temperature;humidity
58638;DHT22;54976;51.510;7.522;2023-07-29T00:01:16;19.80;99.90
58638;DHT22;54976;51.510;7.522;2023-07-29T00:04:16;19.80;99.90
58638;DHT22;54976;51.510;7.522;2023-07-29T00:07:17;19.80;99.90
58638;DHT22;54976;51.510;7.522;2023-07-29T00:10:17;19.70;99.90
58638;DHT22;54976;51.510;7.522;2023-07-29T00:13:18;19.70;99.90
58638;DHT22;54976;51.510;7.522;2023-07-29T00:16:18;19.70;99.90
58638;DHT22;54976;51.510;7.522;2023-07-29T00:19:22;19.70;99.90
58638;DHT22;54976;51.510;7.522;2023-07-29T00:22:23;19.70;99.90
58638;DHT22;54976;51.510;7.522;2023-07-29T00:25:24;19.70;99.90
58638;DHT22;54976;51.510;7.522;2023-07-29T00:28:24;19.70;99.90
58638;DHT22;54976;51.510;7.522;2023-07-29T00:31:25;19.70;99.90
58638;DHT22;54976;51.510;7.522;2023-07-29T00:34:25;19.70;99.90
58638;DHT22;54976;51.510;7.522;2023-07-29T00:37:26;19.70;99.90
58638;DHT22;54976;51.510;7.522;2023-07-29T00:40:27;19.70;99.90
58638;DHT22;54976;51.510;7.522;2023-07-29T00:43:28;19.70;99.90
58638;DHT22;54976;51.510;7.522;2023-07-29T00:46:29;19.60;99.90
58638;DHT22;54976;51.510;7.522;2023-07-29T00:49:29;19.60;99.90
58638;DHT22;54976;51.510;7.522;2023-07-29T00:52:30;19.50;99.90
58638;DHT22;54976;51.510;7.522;2023-07-29T00:55:30;19.50;99.90
58638;DHT22;54976;51.510;7.522;2023-07-29T00:58:31;19.50;99.90
58638;DHT22;54976;51.510;7.522;2023-07-29T01:01:31;19.40;99.90
58638;DHT22;54976;51.510;7.522;2023-07-29T01:04:32;19.40;99.90
58638;DHT22;54976;51.510;7.522;2023-07-29T01:07:38;19.40;99.90
58638;DHT22;54976;51.510;7.522;2023-07-29T01:10:53;19.40;99.90
58638;DHT22;54976;51.510;7.522;2023-07-29T01:13:58;19.40;99.90
58638;DHT22;54976;51.510;7.522;2023-07-29T01:17:03;19.40;99.90
58638;DHT22;54976;51.510;7.522;2023-07-29T01:20:07;19.40;99.90
58638;DHT22;54976;51.510;7.522;2023-07-29T01:23:08;19.40;99.90
58638;DHT22;54976;51.510;7.522;2023-07-29T01:26:09;19.50;99.90
58638;DHT22;54976;51.510;7.522;2023-07-29T01:29:09;19.50;99.90
58638;DHT22;54976;51.510;7.522;2023-07-29T01:32:11;19.50;99.90
58638;DHT22;54976;51.510;7.522;2023-07-29T01:35:19;19.50;99.90
58638;DHT22;54976;51.510;7.522;2023-07-29T01:38:28;19.40;99.90
58638;DHT22;54976;51.510;7.522;2023-07-29T01:41:31;19.50;99.90
58638;DHT22;54976;51.510;7.522;2023-07-29T01:44:32;19.40;99.90
58638;DHT22;54976;51.510;7.522;2023-07-29T01:47:33;19.40;99.90
58638;DHT22;54976;51.510;7.522;2023-07-29T01:50:34;19.40;99.90
58638;DHT22;54976;51.510;7.522;2023-07-29T01:53:34;19.30;99.90
58638;DHT22;54976;51.510;7.522;2023-07-29T01:56:35;19.30;99.90
58638;DHT22;54976;51.510;7.522;2023-07-29T01:59:35;19.20;99.90
58638;DHT22;54976;51.510;7.522;2023-07-29T02:02:36;19.20;99.90
58638;DHT22;54976;51.510;7.522;2023-07-29T02:05:36;19.20;99.90
58638;DHT22;54976;51.510;7.522;2023-07-29T02:08:37;19.10;99.90
58638;DHT22;54976;51.510;7.522;2023-07-29T02:11:41;19.10;99.90
58638;DHT22;54976;51.510;7.522;2023-07-29T02:14:41;19.10;99.90
58638;DHT22;54976;51.510;7.522;2023-07-29T02:17:42;19.10;99.90
58638;DHT22;54976;51.510;7.522;2023-07-29T02:20:42;19.10;99.90
58638;DHT22;54976;51.510;7.522;2023-07-29T02:23:49;19.20;99.90
58638;DHT22;54976;51.510;7.522;2023-07-29T02:26:49;19.10;99.90
58638;DHT22;54976;51.510;7.522;2023-07-29T02:29:50;19.10;99.90
58638;DHT22;54976;51.510;7.522;2023-07-29T02:32:50;19.20;99.90
58638;DHT22;54976;51.510;7.522;2023-07-29T02:35:51;19.20;99.90
58638;DHT22;54976;51.510;7.522;2023-07-29T02:38:51;19.20;99.90
58638;DHT22;54976;51.510;7.522;2023-07-29T02:41:52;19.20;99.90
58638;DHT22;54976;51.510;7.522;2023-07-29T02:44:52;19.20;99.90
58638;DHT22;54976;51.510;7.522;2023-07-29T02:47:53;19.20;99.90
58638;DHT22;54976;51.510;7.522;2023-07-29T02:50:53;19.20;99.90
58638;DHT22;54976;51.510;7.522;2023-07-29T02:53:54;19.20;99.90
58638;DHT22;54976;51.510;7.522;2023-07-29T02:56:54;19.20;99.90
58638;DHT22;54976;51.510;7.522;2023-07-29T02:59:55;19.20;99.90
58638;DHT22;54976;51.510;7.522;2023-07-29T03:02:55;19.20;99.90
58638;DHT22;54976;51.510;7.522;2023-07-29T03:06:00;19.20;99.90
58638;DHT22;54976;51.510;7.522;2023-07-29T03:09:01;19.20;99.90
58638;DHT22;54976;51.510;7.522;2023-07-29T03:12:02;19.20;99.90
58638;DHT22;54976;51.510;7.522;2023-07-29T03:15:03;19.30;99.90
58638;DHT22;54976;51.510;7.522;2023-07-29T03:18:04;19.30;99.90
58638;DHT22;54976;51.510;7.522;2023-07-29T03:21:04;19.30;99.90
58638;DHT22;54976;51.510;7.522;2023-07-29T03:24:05;19.30;99.90
58638;DHT22;54976;51.510;7.522;2023-07-29T03:27:07;19.30;99.90
58638;DHT22;54976;51.510;7.522;2023-07-29T03:30:09;19.30;99.90
58638;DHT22;54976;51.510;7.522;2023-07-29T03:33:10;19.30;99.90
58638;DHT22;54976;51.510;7.522;2023-07-29T03:36:10;19.30;99.90
58638;DHT22;54976;51.510;7.522;2023-07-29T03:39:11;19.30;99.90
58638;DHT22;54976;51.510;7.522;2023-07-29T03:42:12;19.30;99.90
58638;DHT22;54976;51.510;7.522;2023-07-29T03:45:13;19.30;99.90
58638;DHT22;54976;51.510;7.522;2023-07-29T03:48:13;19.30;99.90
58638;DHT22;54976;51.510;7.522;2023-07-29T03:51:14;19.30;99.90
58638;DHT22;54976;51.510;7.522;2023-07-29T03:54:14;19.50;99.90
58638;DHT22;54976;51.510;7.522;2023-07-29T03:57:15;19.30;99.90
58638;DHT22;54976;51.510;7.522;2023-07-29T04:00:15;19.30;99.90
58638;DHT22;54976;51.510;7.522;2023-07-29T04:03:16;19.50;99.90
58638;DHT22;54976;51.510;7.522;2023-07-29T04:06:16;19.30;99.90
58638;DHT22;54976;51.510;7.522;2023-07-29T04:09:16;19.30;99.90
58638;DHT22;54976;51.510;7.522;2023-07-29T04:12:17;19.30;99.90
58638;DHT22;54976;51.510;7.522;2023-07-29T04:15:21;19.30;99.90
58638;DHT22;54976;51.510;7.522;2023-07-29T04:18:22;19.30;99.90
58638;DHT22;54976;51.510;7.522;2023-07-29T04:21:22;19.30;99.90
58638;DHT22;54976;51.510;7.522;2023-07-29T04:24:23;19.30;99.90
58638;DHT22;54976;51.510;7.522;2023-07-29T04:27:23;19.30;99.90
58638;DHT22;54976;51.510;7.522;2023-07-29T04:30:24;19.30;99.90
58638;DHT22;54976;51.510;7.522;2023-07-29T04:33:24;19.40;99.90
58638;DHT22;54976;51.510;7.522;2023-07-29T04:36:25;19.40;99.90
58638;DHT22;54976;51.510;7.522;2023-07-29T04:39:26;19.40;99.90
58638;DHT22;54976;51.510;7.522;2023-07-29T04:42:26;19.50;99.90
58638;DHT22;54976;51.510;7.522;2023-07-29T04:45:30;19.50;99.90
58638;DHT22;54976;51.510;7.522;2023-07-29T04:48:30;19.60;99.90
58638;DHT22;54976;51.510;7.522;2023-07-29T04:51:31;19.60;99.90
58638;DHT22;54976;51.510;7.522;2023-07-29T04:54:35;19.60;99.90
58638;DHT22;54976;51.510;7.522;2023-07-29T04:57:35;19.60;99.90
58638;DHT22;54976;51.510;7.522;2023-07-29T05:00:36;19.60;99.90
58638;DHT22;54976;51.510;7.522;2023-07-29T05:03:36;19.70;99.90
58638;DHT22;54976;51.510;7.522;2023-07-29T05:06:37;19.70;99.90
58638;DHT22;54976;51.510;7.522;2023-07-29T05:09:37;19.80;99.90
58638;DHT22;54976;51.510;7.522;2023-07-29T05:12:38;19.80;99.90
58638;DHT22;54976;51.510;7.522;2023-07-29T05:15:39;19.80;99.90
58638;DHT22;54976;51.510;7.522;2023-07-29T05:18:39;19.80;99.90
58638;DHT22;54976;51.510;7.522;2023-07-29T05:21:39;19.80;99.90
58638;DHT22;54976;51.510;7.522;2023-07-29T05:24:40;19.80;99.90
58638;DHT22;54976;51.510;7.522;2023-07-29T05:27:41;19.80;99.90
58638;DHT22;54976;51.510;7.522;2023-07-29T05:30:43;19.70;99.90
58638;DHT22;54976;51.510;7.522;2023-07-29T05:33:43;19.70;99.90
58638;DHT22;54976;51.510;7.522;2023-07-29T05:36:44;19.70;99.90
58638;DHT22;54976;51.510;7.522;2023-07-29T05:39:44;19.70;99.90
58638;DHT22;54976;51.510;7.522;2023-07-29T05:42:45;19.70;99.90
58638;DHT22;54976;51.510;7.522;2023-07-29T05:45:45;19.80;99.90
58638;DHT22;54976;51.510;7.522;2023-07-29T05:48:46;19.80;99.90
58638;DHT22;54976;51.510;7.522;2023-07-29T05:51:46;20.00;99.90
58638;DHT22;54976;51.510;7.522;2023-07-29T05:54:47;20.00;99.90
58638;DHT22;54976;51.510;7.522;2023-07-29T05:57:47;20.20;99.90
58638;DHT22;54976;51.510;7.522;2023-07-29T06:00:48;20.20;99.90
58638;DHT22;54976;51.510;7.522;2023-07-29T06:03:49;20.20;99.90
58638;DHT22;54976;51.510;7.522;2023-07-29T06:06:49;20.20;99.90
58638;DHT22;54976;51.510;7.522;2023-07-29T06:09:50;20.20;99.90
58638;DHT22;54976;51.510;7.522;2023-07-29T06:12:50;20.10;99.90
58638;DHT22;54976;51.510;7.522;2023-07-29T06:15:51;20.10;99.90
58638;DHT22;54976;51.510;7.522;2023-07-29T06:18:51;20.10;99.90
58638;DHT22;54976;51.510;7.522;2023-07-29T06:21:54;20.10;99.90
58638;DHT22;54976;51.510;7.522;2023-07-29T06:24:55;20.00;99.90
58638;DHT22;54976;51.510;7.522;2023-07-29T06:27:55;20.00;99.90
58638;DHT22;54976;51.510;7.522;2023-07-29T06:30:56;20.00;99.90
58638;DHT22;54976;51.510;7.522;2023-07-29T06:33:56;19.90;99.90
58638;DHT22;54976;51.510;7.522;2023-07-29T06:36:57;20.00;99.90
58638;DHT22;54976;51.510;7.522;2023-07-29T06:39:57;19.90;99.90
58638;DHT22;54976;51.510;7.522;2023-07-29T06:42:58;20.00;99.90
58638;DHT22;54976;51.510;7.522;2023-07-29T06:45:58;20.00;99.90
58638;DHT22;54976;51.510;7.522;2023-07-29T06:48:59;20.10;99.90
58638;DHT22;54976;51.510;7.522;2023-07-29T06:51:59;20.10;99.90
58638;DHT22;54976;51.510;7.522;2023-07-29T06:55:00;20.10;99.90
58638;DHT22;54976;51.510;7.522;2023-07-29T06:58:00;20.00;99.90
58638;DHT22;54976;51.510;7.522;2023-07-29T07:01:01;19.80;99.90
58638;DHT22;54976;51.510;7.522;2023-07-29T07:04:03;19.80;99.90
58638;DHT22;54976;51.510;7.522;2023-07-29T07:07:04;19.80;99.90
58638;DHT22;54976;51.510;7.522;2023-07-29T07:10:04;19.90;99.90
58638;DHT22;54976;51.510;7.522;2023-07-29T07:13:05;19.90;99.90
58638;DHT22;54976;51.510;7.522;2023-07-29T07:16:05;19.90;99.90
58638;DHT22;54976;51.510;7.522;2023-07-29T07:19:06;19.90;99.90
58638;DHT22;54976;51.510;7.522;2023-07-29T07:22:06;19.80;99.90
58638;DHT22;54976;51.510;7.522;2023-07-29T07:25:07;19.90;99.90
58638;DHT22;54976;51.510;7.522;2023-07-29T07:28:08;19.90;99.90
58638;DHT22;54976;51.510;7.522;2023-07-29T07:31:09;20.00;99.60
58638;DHT22;54976;51.510;7.522;2023-07-29T07:34:09;20.00;99.50
58638;DHT22;54976;51.510;7.522;2023-07-29T07:37:10;20.00;98.50
58638;DHT22;54976;51.510;7.522;2023-07-29T07:40:10;20.00;98.20
58638;DHT22;54976;51.510;7.522;2023-07-29T07:43:11;20.30;98.70
58638;DHT22;54976;51.510;7.522;2023-07-29T07:46:11;20.70;98.40
58638;DHT22;54976;51.510;7.522;2023-07-29T07:49:12;21.00;97.00
58638;DHT22;54976;51.510;7.522;2023-07-29T07:52:13;21.20;97.10
58638;DHT22;54976;51.510;7.522;2023-07-29T07:55:14;21.90;95.90
58638;DHT22;54976;51.510;7.522;2023-07-29T07:58:14;22.20;95.10
58638;DHT22;54976;51.510;7.522;2023-07-29T08:01:15;22.20;93.80
58638;DHT22;54976;51.510;7.522;2023-07-29T08:04:15;22.10;93.30
58638;DHT22;54976;51.510;7.522;2023-07-29T08:07:15;22.50;94.40
58638;DHT22;54976;51.510;7.522;2023-07-29T08:10:16;23.30;93.10
58638;DHT22;54976;51.510;7.522;2023-07-29T08:13:16;23.70;91.10
58638;DHT22;54976;51.510;7.522;2023-07-29T08:16:17;24.00;88.40
58638;DHT22;54976;51.510;7.522;2023-07-29T08:19:18;23.90;89.30
58638;DHT22;54976;51.510;7.522;2023-07-29T08:22:18;23.70;89.00
58638;DHT22;54976;51.510;7.522;2023-07-29T08:25:19;23.60;89.00
58638;DHT22;54976;51.510;7.522;2023-07-29T08:28:19;23.30;88.20
58638;DHT22;54976;51.510;7.522;2023-07-29T08:31:20;22.80;86.70
58638;DHT22;54976;51.510;7.522;2023-07-29T08:34:20;22.50;89.90
58638;DHT22;54976;51.510;7.522;2023-07-29T08:37:21;22.30;90.50
58638;DHT22;54976;51.510;7.522;2023-07-29T08:40:23;22.00;91.20
58638;DHT22;54976;51.510;7.522;2023-07-29T08:43:31;22.00;91.40
58638;DHT22;54976;51.510;7.522;2023-07-29T08:46:32;22.10;91.30
58638;DHT22;54976;51.510;7.522;2023-07-29T08:49:32;22.30;90.70
58638;DHT22;54976;51.510;7.522;2023-07-29T08:52:33;22.10;90.60
58638;DHT22;54976;51.510;7.522;2023-07-29T08:55:35;22.00;91.00
58638;DHT22;54976;51.510;7.522;2023-07-29T08:58:36;21.90;90.50
58638;DHT22;54976;51.510;7.522;2023-07-29T09:01:40;21.90;91.70
58638;DHT22;54976;51.510;7.522;2023-07-29T09:04:42;21.90;90.70
58638;DHT22;54976;51.510;7.522;2023-07-29T09:07:42;22.10;90.80
58638;DHT22;54976;51.510;7.522;2023-07-29T09:10:44;22.20;91.10
58638;DHT22;54976;51.510;7.522;2023-07-29T09:13:45;22.40;90.70
58638;DHT22;54976;51.510;7.522;2023-07-29T09:16:45;22.50;89.30
58638;DHT22;54976;51.510;7.522;2023-07-29T09:19:50;22.50;88.80
58638;DHT22;54976;51.510;7.522;2023-07-29T09:22:50;22.60;89.80
58638;DHT22;54976;51.510;7.522;2023-07-29T09:25:51;22.70;88.40
58638;DHT22;54976;51.510;7.522;2023-07-29T09:29:00;22.70;87.60
58638;DHT22;54976;51.510;7.522;2023-07-29T09:35:20;22.90;87.20
58638;DHT22;54976;51.510;7.522;2023-07-29T09:38:26;23.00;87.00
58638;DHT22;54976;51.510;7.522;2023-07-29T09:41:27;23.00;85.20
58638;DHT22;54976;51.510;7.522;2023-07-29T09:44:27;23.10;85.90
58638;DHT22;54976;51.510;7.522;2023-07-29T09:47:35;23.30;84.60
58638;DHT22;54976;51.510;7.522;2023-07-29T09:50:36;23.60;83.20
58638;DHT22;54976;51.510;7.522;2023-07-29T09:53:43;24.10;81.70
58638;DHT22;54976;51.510;7.522;2023-07-29T09:56:44;24.80;82.40
58638;DHT22;54976;51.510;7.522;2023-07-29T09:59:54;25.40;78.70
58638;DHT22;54976;51.510;7.522;2023-07-29T10:02:55;25.90;76.40
58638;DHT22;54976;51.510;7.522;2023-07-29T10:05:56;26.20;73.90
58638;DHT22;54976;51.510;7.522;2023-07-29T10:08:59;26.10;73.30
58638;DHT22;54976;51.510;7.522;2023-07-29T10:12:00;26.20;71.40
58638;DHT22;54976;51.510;7.522;2023-07-29T10:15:04;25.90;70.50
58638;DHT22;54976;51.510;7.522;2023-07-29T10:18:06;25.50;72.90
58638;DHT22;54976;51.510;7.522;2023-07-29T10:21:07;25.10;73.20
58638;DHT22;54976;51.510;7.522;2023-07-29T10:24:09;24.80;73.90
58638;DHT22;54976;51.510;7.522;2023-07-29T10:27:12;24.50;76.70
58638;DHT22;54976;51.510;7.522;2023-07-29T10:30:15;24.50;78.20
58638;DHT22;54976;51.510;7.522;2023-07-29T10:33:15;24.60;75.80
58638;DHT22;54976;51.510;7.522;2023-07-29T10:36:16;24.50;75.50
58638;DHT22;54976;51.510;7.522;2023-07-29T10:39:17;24.50;76.00
58638;DHT22;54976;51.510;7.522;2023-07-29T10:42:17;24.40;76.40
58638;DHT22;54976;51.510;7.522;2023-07-29T10:45:18;24.40;76.30
58638;DHT22;54976;51.510;7.522;2023-07-29T10:51:35;24.50;78.30
58638;DHT22;54976;51.510;7.522;2023-07-29T10:54:43;24.50;79.00
58638;DHT22;54976;51.510;7.522;2023-07-29T10:57:43;24.50;77.40
58638;DHT22;54976;51.510;7.522;2023-07-29T11:00:45;24.50;77.40
58638;DHT22;54976;51.510;7.522;2023-07-29T11:04:00;24.40;78.00
58638;DHT22;54976;51.510;7.522;2023-07-29T11:10:05;24.20;79.30
58638;DHT22;54976;51.510;7.522;2023-07-29T11:13:05;24.30;78.60
58638;DHT22;54976;51.510;7.522;2023-07-29T11:16:09;24.40;78.30
58638;DHT22;54976;51.510;7.522;2023-07-29T11:19:10;24.40;78.70
58638;DHT22;54976;51.510;7.522;2023-07-29T11:22:15;24.40;80.30
58638;DHT22;54976;51.510;7.522;2023-07-29T11:25:16;24.50;79.00
58638;DHT22;54976;51.510;7.522;2023-07-29T11:28:17;24.50;79.70
58638;DHT22;54976;51.510;7.522;2023-07-29T11:31:17;24.60;76.60
58638;DHT22;54976;51.510;7.522;2023-07-29T11:34:30;24.60;74.90
58638;DHT22;54976;51.510;7.522;2023-07-29T11:37:32;24.40;75.30
58638;DHT22;54976;51.510;7.522;2023-07-29T11:40:33;24.30;76.40
58638;DHT22;54976;51.510;7.522;2023-07-29T11:43:36;24.40;77.50
58638;DHT22;54976;51.510;7.522;2023-07-29T11:46:37;24.50;79.00
58638;DHT22;54976;51.510;7.522;2023-07-29T11:49:38;24.50;76.40
58638;DHT22;54976;51.510;7.522;2023-07-29T11:52:40;24.50;75.90
58638;DHT22;54976;51.510;7.522;2023-07-29T11:55:40;24.40;76.80
58638;DHT22;54976;51.510;7.522;2023-07-29T11:58:41;24.30;76.30
58638;DHT22;54976;51.510;7.522;2023-07-29T12:01:42;24.30;78.10
58638;DHT22;54976;51.510;7.522;2023-07-29T12:04:43;24.40;80.40
58638;DHT22;54976;51.510;7.522;2023-07-29T12:07:44;24.50;78.30
58638;DHT22;54976;51.510;7.522;2023-07-29T12:10:44;24.60;77.10
58638;DHT22;54976;51.510;7.522;2023-07-29T12:13:46;24.60;75.00
58638;DHT22;54976;51.510;7.522;2023-07-29T12:16:50;24.50;77.10
58638;DHT22;54976;51.510;7.522;2023-07-29T12:19:53;24.70;75.10
58638;DHT22;54976;51.510;7.522;2023-07-29T12:22:58;24.70;74.50
58638;DHT22;54976;51.510;7.522;2023-07-29T12:25:59;24.90;73.40
58638;DHT22;54976;51.510;7.522;2023-07-29T12:29:10;25.20;73.10
58638;DHT22;54976;51.510;7.522;2023-07-29T12:32:10;25.60;72.00
58638;DHT22;54976;51.510;7.522;2023-07-29T12:35:11;25.90;70.10
58638;DHT22;54976;51.510;7.522;2023-07-29T12:38:11;26.60;70.00
58638;DHT22;54976;51.510;7.522;2023-07-29T12:41:20;27.20;66.60
58638;DHT22;54976;51.510;7.522;2023-07-29T12:44:22;26.80;65.50
58638;DHT22;54976;51.510;7.522;2023-07-29T12:47:23;26.30;65.60
58638;DHT22;54976;51.510;7.522;2023-07-29T12:50:23;26.60;65.70
58638;DHT22;54976;51.510;7.522;2023-07-29T12:53:24;27.20;64.90
58638;DHT22;54976;51.510;7.522;2023-07-29T12:56:24;27.90;61.70
58638;DHT22;54976;51.510;7.522;2023-07-29T12:59:25;27.90;59.00
58638;DHT22;54976;51.510;7.522;2023-07-29T13:02:25;27.80;59.30
58638;DHT22;54976;51.510;7.522;2023-07-29T13:05:26;27.30;59.60
58638;DHT22;54976;51.510;7.522;2023-07-29T13:08:26;27.10;59.80
58638;DHT22;54976;51.510;7.522;2023-07-29T13:11:27;27.20;60.70
58638;DHT22;54976;51.510;7.522;2023-07-29T13:14:27;27.40;61.50
58638;DHT22;54976;51.510;7.522;2023-07-29T13:17:28;27.50;59.50
58638;DHT22;54976;51.510;7.522;2023-07-29T13:20:29;27.00;60.60
58638;DHT22;54976;51.510;7.522;2023-07-29T13:23:29;27.20;60.20
58638;DHT22;54976;51.510;7.522;2023-07-29T13:26:30;27.10;60.20
58638;DHT22;54976;51.510;7.522;2023-07-29T13:29:30;27.20;60.00
58638;DHT22;54976;51.510;7.522;2023-07-29T13:32:31;27.10;60.70
58638;DHT22;54976;51.510;7.522;2023-07-29T13:35:31;27.20;60.40
58638;DHT22;54976;51.510;7.522;2023-07-29T13:38:32;27.40;60.30
58638;DHT22;54976;51.510;7.522;2023-07-29T13:41:32;27.10;58.80
58638;DHT22;54976;51.510;7.522;2023-07-29T13:44:33;26.80;61.80
58638;DHT22;54976;51.510;7.522;2023-07-29T13:47:33;26.70;62.80
58638;DHT22;54976;51.510;7.522;2023-07-29T13:50:34;26.40;63.00
58638;DHT22;54976;51.510;7.522;2023-07-29T13:53:34;26.90;60.20
58638;DHT22;54976;51.510;7.522;2023-07-29T13:56:35;26.70;60.50
58638;DHT22;54976;51.510;7.522;2023-07-29T13:59:35;26.20;61.00
58638;DHT22;54976;51.510;7.522;2023-07-29T14:02:38;25.80;63.80
58638;DHT22;54976;51.510;7.522;2023-07-29T14:05:38;25.40;64.30
58638;DHT22;54976;51.510;7.522;2023-07-29T14:08:39;25.00;67.10
58638;DHT22;54976;51.510;7.522;2023-07-29T14:11:42;24.50;69.90
58638;DHT22;54976;51.510;7.522;2023-07-29T14:14:42;24.20;70.40
58638;DHT22;54976;51.510;7.522;2023-07-29T14:17:42;24.10;72.70
58638;DHT22;54976;51.510;7.522;2023-07-29T14:20:43;23.80;75.60
58638;DHT22;54976;51.510;7.522;2023-07-29T14:23:43;23.70;76.20
58638;DHT22;54976;51.510;7.522;2023-07-29T14:26:44;23.60;77.10
58638;DHT22;54976;51.510;7.522;2023-07-29T14:29:44;23.50;77.30
58638;DHT22;54976;51.510;7.522;2023-07-29T14:32:45;23.30;76.60
58638;DHT22;54976;51.510;7.522;2023-07-29T14:35:45;23.10;78.90
58638;DHT22;54976;51.510;7.522;2023-07-29T14:38:46;22.90;81.40
58638;DHT22;54976;51.510;7.522;2023-07-29T14:41:46;22.70;85.30
58638;DHT22;54976;51.510;7.522;2023-07-29T14:44:47;22.50;89.00
58638;DHT22;54976;51.510;7.522;2023-07-29T14:47:47;22.10;90.70
58638;DHT22;54976;51.510;7.522;2023-07-29T14:50:48;21.80;92.90
58638;DHT22;54976;51.510;7.522;2023-07-29T14:53:48;21.50;95.00
58638;DHT22;54976;51.510;7.522;2023-07-29T14:56:49;21.10;95.60
58638;DHT22;54976;51.510;7.522;2023-07-29T14:59:49;20.70;98.50
58638;DHT22;54976;51.510;7.522;2023-07-29T15:02:50;20.40;98.80
58638;DHT22;54976;51.510;7.522;2023-07-29T15:05:50;20.10;99.30
58638;DHT22;54976;51.510;7.522;2023-07-29T15:08:51;19.80;99.90
58638;DHT22;54976;51.510;7.522;2023-07-29T15:11:52;19.60;99.90
58638;DHT22;54976;51.510;7.522;2023-07-29T15:14:53;19.40;99.90
58638;DHT22;54976;51.510;7.522;2023-07-29T15:17:54;20.00;99.90
58638;DHT22;54976;51.510;7.522;2023-07-29T15:20:54;21.40;99.80
58638;DHT22;54976;51.510;7.522;2023-07-29T15:23:55;22.70;98.60
58638;DHT22;54976;51.510;7.522;2023-07-29T15:26:55;23.40;95.10
58638;DHT22;54976;51.510;7.522;2023-07-29T15:29:56;24.10;94.20
58638;DHT22;54976;51.510;7.522;2023-07-29T15:32:56;24.00;94.10
58638;DHT22;54976;51.510;7.522;2023-07-29T15:35:57;23.20;92.50
58638;DHT22;54976;51.510;7.522;2023-07-29T15:38:57;22.50;94.60
58638;DHT22;54976;51.510;7.522;2023-07-29T15:41:58;22.10;96.00
58638;DHT22;54976;51.510;7.522;2023-07-29T15:44:58;21.60;97.60
58638;DHT22;54976;51.510;7.522;2023-07-29T15:47:59;21.00;98.50
58638;DHT22;54976;51.510;7.522;2023-07-29T15:50:59;20.70;99.30
58638;DHT22;54976;51.510;7.522;2023-07-29T15:54:00;20.60;99.90
58638;DHT22;54976;51.510;7.522;2023-07-29T15:57:01;20.30;99.90
58638;DHT22;54976;51.510;7.522;2023-07-29T16:00:02;20.60;99.90
58638;DHT22;54976;51.510;7.522;2023-07-29T16:03:03;21.30;99.90
58638;DHT22;54976;51.510;7.522;2023-07-29T16:06:03;22.40;99.30
58638;DHT22;54976;51.510;7.522;2023-07-29T16:09:04;23.40;96.00
58638;DHT22;54976;51.510;7.522;2023-07-29T16:12:06;23.90;95.00
58638;DHT22;54976;51.510;7.522;2023-07-29T16:15:07;24.00;93.00
58638;DHT22;54976;51.510;7.522;2023-07-29T16:18:08;23.90;94.10
58638;DHT22;54976;51.510;7.522;2023-07-29T16:21:08;23.40;94.50
58638;DHT22;54976;51.510;7.522;2023-07-29T16:24:09;22.90;96.30
58638;DHT22;54976;51.510;7.522;2023-07-29T16:27:09;22.70;97.90
58638;DHT22;54976;51.510;7.522;2023-07-29T16:30:10;22.90;97.70
58638;DHT22;54976;51.510;7.522;2023-07-29T16:33:10;23.00;97.00
58638;DHT22;54976;51.510;7.522;2023-07-29T16:36:11;23.30;95.80
58638;DHT22;54976;51.510;7.522;2023-07-29T16:39:12;23.30;95.20
58638;DHT22;54976;51.510;7.522;2023-07-29T16:42:12;23.50;95.90
58638;DHT22;54976;51.510;7.522;2023-07-29T16:45:13;23.40;95.80
58638;DHT22;54976;51.510;7.522;2023-07-29T16:48:13;23.40;94.20
58638;DHT22;54976;51.510;7.522;2023-07-29T16:51:14;23.30;94.40
58638;DHT22;54976;51.510;7.522;2023-07-29T16:54:14;23.10;94.00
58638;DHT22;54976;51.510;7.522;2023-07-29T16:57:18;23.00;94.70
58638;DHT22;54976;51.510;7.522;2023-07-29T17:00:18;23.00;94.80
58638;DHT22;54976;51.510;7.522;2023-07-29T17:03:18;22.80;95.50
58638;DHT22;54976;51.510;7.522;2023-07-29T17:06:20;22.50;95.60
58638;DHT22;54976;51.510;7.522;2023-07-29T17:09:20;22.30;95.10
58638;DHT22;54976;51.510;7.522;2023-07-29T17:12:21;22.10;95.50
58638;DHT22;54976;51.510;7.522;2023-07-29T17:15:21;22.00;96.50
58638;DHT22;54976;51.510;7.522;2023-07-29T17:18:22;21.70;97.90
58638;DHT22;54976;51.510;7.522;2023-07-29T17:21:22;21.60;97.50
58638;DHT22;54976;51.510;7.522;2023-07-29T17:24:23;21.50;98.40
58638;DHT22;54976;51.510;7.522;2023-07-29T17:27:23;21.30;99.10
58638;DHT22;54976;51.510;7.522;2023-07-29T17:30:24;21.20;99.60
58638;DHT22;54976;51.510;7.522;2023-07-29T17:33:30;21.10;99.90
58638;DHT22;54976;51.510;7.522;2023-07-29T17:36:31;21.00;99.90
58638;DHT22;54976;51.510;7.522;2023-07-29T17:39:31;21.00;99.90
58638;DHT22;54976;51.510;7.522;2023-07-29T17:42:32;21.00;99.90
58638;DHT22;54976;51.510;7.522;2023-07-29T17:45:32;20.90;99.90
58638;DHT22;54976;51.510;7.522;2023-07-29T17:48:33;20.90;99.90
58638;DHT22;54976;51.510;7.522;2023-07-29T17:51:33;20.90;99.90
58638;DHT22;54976;51.510;7.522;2023-07-29T17:54:34;20.80;99.90
58638;DHT22;54976;51.510;7.522;2023-07-29T17:57:34;20.80;99.90
58638;DHT22;54976;51.510;7.522;2023-07-29T18:00:35;20.80;99.90
58638;DHT22;54976;51.510;7.522;2023-07-29T18:03:35;20.70;99.90
58638;DHT22;54976;51.510;7.522;2023-07-29T18:06:36;20.70;99.90
58638;DHT22;54976;51.510;7.522;2023-07-29T18:09:36;20.70;99.90
58638;DHT22;54976;51.510;7.522;2023-07-29T18:12:37;20.70;99.90
58638;DHT22;54976;51.510;7.522;2023-07-29T18:15:42;20.60;99.90
58638;DHT22;54976;51.510;7.522;2023-07-29T18:18:42;20.60;99.90
58638;DHT22;54976;51.510;7.522;2023-07-29T18:21:43;20.60;99.90
58638;DHT22;54976;51.510;7.522;2023-07-29T18:24:43;20.50;99.90
58638;DHT22;54976;51.510;7.522;2023-07-29T18:27:44;20.50;99.90
58638;DHT22;54976;51.510;7.522;2023-07-29T18:30:44;20.50;99.90
58638;DHT22;54976;51.510;7.522;2023-07-29T18:33:45;20.50;99.90
58638;DHT22;54976;51.510;7.522;2023-07-29T18:36:45;20.50;99.90
58638;DHT22;54976;51.510;7.522;2023-07-29T18:39:46;20.40;99.90
58638;DHT22;54976;51.510;7.522;2023-07-29T18:42:46;20.40;99.90
58638;DHT22;54976;51.510;7.522;2023-07-29T18:45:47;20.40;99.90
58638;DHT22;54976;51.510;7.522;2023-07-29T18:48:48;20.40;99.90
58638;DHT22;54976;51.510;7.522;2023-07-29T18:51:48;20.40;99.90
58638;DHT22;54976;51.510;7.522;2023-07-29T18:54:50;20.30;99.90
58638;DHT22;54976;51.510;7.522;2023-07-29T18:57:51;20.30;99.90
58638;DHT22;54976;51.510;7.522;2023-07-29T19:00:52;20.10;99.90
58638;DHT22;54976;51.510;7.522;2023-07-29T19:03:53;20.10;99.90
58638;DHT22;54976;51.510;7.522;2023-07-29T19:06:54;20.00;99.90
58638;DHT22;54976;51.510;7.522;2023-07-29T19:09:55;19.90;99.90
58638;DHT22;54976;51.510;7.522;2023-07-29T19:12:57;19.80;99.90